Time;durP1;ratioP1;P1;durP2;ratioP2;P2;SDS_P1;SDS_P2;PMS_P1;PMS_P2;Temp;Humidity;BMP_temperature;BMP_pressure;BME280_temperature;BME280_humidity;BME280_pressure;Samples;Min_cycle;Max_cycle;Signal;HPM_P1;HPM_P2
2023/10/11 00:02:52;;;;;;;6.85;3.15;;;;;;;;;;5092055;28;20024;-70
2023/10/11 00:05:19;;;;;;;12.60;3.78;;;;;;;;;;5091921;28;20534;-70
2023/10/11 00:07:46;;;;;;;8.25;3.53;;;;;;;;;;5074443;28;20032;-70
2023/10/11 00:10:13;;;;;;;9.15;3.50;;;;;;;;;;5077597;28;20020;-70
2023/10/11 00:12:43;;;;;;;6.75;3.55;;;;;;;;;;5095961;28;20089;-70
2023/10/11 00:15:10;;;;;;;7.25;3.15;;;;;;;;;;5095143;28;20032;-70
2023/10/11 00:17:37;;;;;;;7.00;3.33;;;;;;;;;;5095705;28;20024;-70
2023/10/11 00:20:15;;;;;;;14.48;3.83;;;;;;;;;;5095630;28;20024;-69
2023/10/11 00:22:42;;;;;;;7.38;3.40;;;;;;;;;;5095658;28;20064;-70
2023/10/11 00:25:09;;;;;;;8.40;3.33;;;;;;;;;;5095348;28;20507;-70
2023/10/11 00:27:36;;;;;;;9.23;3.40;;;;;;;;;;5095112;28;20383;-69
2023/10/11 00:30:03;;;;;;;13.63;3.40;;;;;;;;;;5094968;28;20024;-70
2023/10/11 00:32:29;;;;;;;8.68;3.50;;;;;;;;;;5094077;28;20038;-70
2023/10/11 00:34:55;;;;;;;11.70;3.75;;;;;;;;;;5095065;28;20035;-70
2023/10/11 00:37:22;;;;;;;8.20;3.50;;;;;;;;;;5095284;28;20028;-70
2023/10/11 00:39:48;;;;;;;7.32;3.42;;;;;;;;;;5095225;28;20028;-70
2023/10/11 00:42:14;;;;;;;9.68;3.58;;;;;;;;;;5095270;28;20537;-70
2023/10/11 00:44:42;;;;;;;12.45;3.88;;;;;;;;;;5094946;28;20028;-69
2023/10/11 00:47:09;;;;;;;9.80;3.55;;;;;;;;;;5095001;28;20022;-69
2023/10/11 00:49:36;;;;;;;9.75;3.83;;;;;;;;;;5095360;28;20032;-70
2023/10/11 00:52:04;;;;;;;8.40;3.75;;;;;;;;;;5095242;28;20016;-70
2023/10/11 00:54:31;;;;;;;9.13;3.38;;;;;;;;;;5094558;28;20040;-69
2023/10/11 00:56:57;;;;;;;6.90;3.67;;;;;;;;;;5095062;28;20040;-70
2023/10/11 00:59:25;;;;;;;9.82;3.53;;;;;;;;;;5094552;28;20020;-70
2023/10/11 01:01:52;;;;;;;7.45;3.63;;;;;;;;;;5094797;28;20050;-70
2023/10/11 01:04:19;;;;;;;8.95;3.05;;;;;;;;;;5094465;28;20039;-70
2023/10/11 01:06:48;;;;;;;9.73;3.90;;;;;;;;;;5094532;28;20020;-70
2023/10/11 01:09:21;;;;;;;10.52;4.20;;;;;;;;;;5094417;28;20020;-70
2023/10/11 01:11:48;;;;;;;13.05;3.80;;;;;;;;;;5094919;28;20020;-70
2023/10/11 01:14:14;;;;;;;6.53;3.75;;;;;;;;;;5094115;28;20032;-70
2023/10/11 01:16:41;;;;;;;10.07;4.30;;;;;;;;;;5094284;28;20465;-70
2023/10/11 01:19:10;;;;;;;12.13;3.97;;;;;;;;;;5093992;28;20042;-70
2023/10/11 01:21:37;;;;;;;12.88;4.30;;;;;;;;;;5094521;28;20030;-70
2023/10/11 01:24:08;;;;;;;6.95;3.90;;;;;;;;;;5094764;28;20028;-70
2023/10/11 01:26:35;;;;;;;12.95;4.10;;;;;;;;;;5094450;28;20031;-69
2023/10/11 01:29:01;;;;;;;13.90;3.85;;;;;;;;;;5093720;28;20427;-70
2023/10/11 01:31:33;;;;;;;8.43;4.00;;;;;;;;;;5094276;28;20424;-70
2023/10/11 01:33:59;;;;;;;8.82;3.72;;;;;;;;;;5094030;28;20040;-70
2023/10/11 01:36:26;;;;;;;8.77;3.50;;;;;;;;;;5094220;28;20065;-70
2023/10/11 01:38:52;;;;;;;6.35;3.58;;;;;;;;;;5094158;28;20020;-70
2023/10/11 01:41:20;;;;;;;8.95;3.53;;;;;;;;;;5094061;28;20028;-69
2023/10/11 01:43:46;;;;;;;7.55;4.00;;;;;;;;;;5093499;28;20023;-70
2023/10/11 01:46:16;;;;;;;8.68;4.20;;;;;;;;;;5093946;28;20493;-70
2023/10/11 01:48:46;;;;;;;9.32;3.75;;;;;;;;;;5093964;28;20016;-70
2023/10/11 01:51:16;;;;;;;9.63;3.90;;;;;;;;;;5093587;28;20032;-69
2023/10/11 01:53:44;;;;;;;12.18;3.75;;;;;;;;;;5093600;28;20040;-70
2023/10/11 01:56:10;;;;;;;7.25;4.05;;;;;;;;;;5093678;28;20035;-70
2023/10/11 01:58:37;;;;;;;11.15;4.22;;;;;;;;;;5093452;28;20020;-69
2023/10/11 02:01:05;;;;;;;9.02;3.88;;;;;;;;;;5093556;28;20032;-70
2023/10/11 02:03:32;;;;;;;8.50;3.67;;;;;;;;;;5091896;28;20485;-70
2023/10/11 02:06:02;;;;;;;8.48;3.72;;;;;;;;;;5093597;28;20032;-69
2023/10/11 02:08:36;;;;;;;6.63;3.55;;;;;;;;;;5093605;28;20372;-70
2023/10/11 02:11:05;;;;;;;8.77;3.85;;;;;;;;;;5093400;28;20028;-70
2023/10/11 02:13:33;;;;;;;9.80;3.80;;;;;;;;;;5093190;28;20034;-70
2023/10/11 02:16:00;;;;;;;11.90;3.70;;;;;;;;;;5093342;28;20020;-70
2023/10/11 02:18:28;;;;;;;12.10;4.00;;;;;;;;;;5093166;28;20072;-70
2023/10/11 02:20:55;;;;;;;10.90;4.50;;;;;;;;;;5093347;28;20080;-70
2023/10/11 02:23:23;;;;;;;11.63;4.93;;;;;;;;;;5093452;28;20023;-70
2023/10/11 02:25:49;;;;;;;9.35;4.13;;;;;;;;;;5093155;28;20030;-69
2023/10/11 02:28:15;;;;;;;10.52;4.22;;;;;;;;;;5093131;28;20024;-69
2023/10/11 02:30:42;;;;;;;9.82;4.30;;;;;;;;;;5091122;28;20030;-69
2023/10/11 02:33:11;;;;;;;12.02;4.50;;;;;;;;;;5092826;28;20054;-70
2023/10/11 02:35:49;;;;;;;9.63;4.20;;;;;;;;;;5093177;28;20024;-70
2023/10/11 02:38:21;;;;;;;11.18;4.53;;;;;;;;;;5093024;28;20050;-70
2023/10/11 02:40:55;;;;;;;10.75;3.80;;;;;;;;;;5092686;28;20027;-70
2023/10/11 02:43:25;;;;;;;10.95;4.53;;;;;;;;;;5092674;28;20024;-69
2023/10/11 02:45:54;;;;;;;7.45;3.53;;;;;;;;;;5092787;28;20370;-69
2023/10/11 02:48:21;;;;;;;10.20;4.50;;;;;;;;;;5092867;28;20020;-69
2023/10/11 02:50:54;;;;;;;13.60;4.22;;;;;;;;;;5092670;28;20397;-69
2023/10/11 02:53:24;;;;;;;8.50;3.90;;;;;;;;;;5092323;28;20084;-69
2023/10/11 02:55:57;;;;;;;9.07;4.18;;;;;;;;;;5092088;28;20030;-70
2023/10/11 02:58:25;;;;;;;11.23;3.92;;;;;;;;;;5092357;28;20032;-69
2023/10/11 03:00:56;;;;;;;8.23;4.47;;;;;;;;;;5092515;28;20024;-70
2023/10/11 03:03:23;;;;;;;10.43;3.95;;;;;;;;;;5092876;28;20035;-70
2023/10/11 03:05:51;;;;;;;9.65;4.45;;;;;;;;;;5092334;28;20370;-69
2023/10/11 03:08:19;;;;;;;8.48;4.32;;;;;;;;;;5092447;28;20024;-69
2023/10/11 03:10:53;;;;;;;9.20;4.63;;;;;;;;;;5092025;28;20020;-70
2023/10/11 03:13:29;;;;;;;10.10;4.10;;;;;;;;;;5092464;28;20031;-70
2023/10/11 03:15:59;;;;;;;12.07;4.32;;;;;;;;;;5092513;28;20025;-69
2023/10/11 03:18:26;;;;;;;7.55;4.05;;;;;;;;;;5092479;28;20032;-70
2023/10/11 03:21:06;;;;;;;9.70;4.20;;;;;;;;;;5074629;28;20072;-70
2023/10/11 03:23:36;;;;;;;9.70;4.57;;;;;;;;;;5092275;28;20016;-70
2023/10/11 03:26:07;;;;;;;10.80;3.95;;;;;;;;;;5092590;28;20019;-69
2023/10/11 03:28:33;;;;;;;9.65;4.88;;;;;;;;;;5092188;28;20030;-70
2023/10/11 03:31:00;;;;;;;7.80;4.38;;;;;;;;;;5092094;28;20016;-70
2023/10/11 03:33:28;;;;;;;9.07;4.10;;;;;;;;;;5092167;28;20038;-70
2023/10/11 03:35:56;;;;;;;8.20;4.57;;;;;;;;;;5092517;28;20362;-70
2023/10/11 03:38:22;;;;;;;12.48;4.60;;;;;;;;;;5091946;28;20026;-70
2023/10/11 03:40:54;;;;;;;7.93;4.20;;;;;;;;;;5092229;28;20024;-69
2023/10/11 03:43:21;;;;;;;12.52;4.28;;;;;;;;;;5094869;28;20388;-70
2023/10/11 03:45:50;;;;;;;9.63;4.13;;;;;;;;;;5096235;28;20024;-70
2023/10/11 03:48:17;;;;;;;8.05;4.57;;;;;;;;;;5096083;28;20423;-70
2023/10/11 03:50:47;;;;;;;10.93;4.28;;;;;;;;;;5096405;28;20032;-69
2023/10/11 03:53:14;;;;;;;9.32;4.30;;;;;;;;;;5095394;28;20022;-69
2023/10/11 03:55:47;;;;;;;9.52;4.10;;;;;;;;;;5095876;28;20034;-69
2023/10/11 03:58:33;;;;;;;9.60;4.40;;;;;;;;;;5095881;28;20503;-69
2023/10/11 04:01:37;;;;;;;7.35;4.18;;;;;;;;;;5094591;28;20391;-69
2023/10/11 04:03:52;;;;;;;13.07;4.68;;;;;;;;;;5092580;28;20052;-69
2023/10/11 04:06:19;;;;;;;9.40;5.03;;;;;;;;;;5095733;28;20024;-70
2023/10/11 04:08:55;;;;;;;8.77;4.18;;;;;;;;;;5095410;28;20028;-70
2023/10/11 04:11:31;;;;;;;11.70;4.70;;;;;;;;;;5095616;28;20031;-70
2023/10/11 04:13:58;;;;;;;10.85;4.15;;;;;;;;;;5095688;28;20397;-69
2023/10/11 04:16:25;;;;;;;10.10;4.50;;;;;;;;;;5094257;28;20028;-69
2023/10/11 04:18:52;;;;;;;9.65;4.28;;;;;;;;;;5077406;28;20032;-70
2023/10/11 04:24:06;;;;;;;9.38;3.95;;;;;;;;;;5095296;28;20036;-69
2023/10/11 04:26:35;;;;;;;7.47;4.07;;;;;;;;;;5077363;28;20388;-69
2023/10/11 04:29:06;;;;;;;12.63;4.82;;;;;;;;;;5077578;28;20507;-69
2023/10/11 04:31:42;;;;;;;14.35;4.47;;;;;;;;;;5095165;28;20018;-70
2023/10/11 04:34:14;;;;;;;9.90;4.72;;;;;;;;;;5095125;28;20026;-70
2023/10/11 04:36:43;;;;;;;10.10;3.80;;;;;;;;;;5095164;28;20020;-70
2023/10/11 04:39:15;;;;;;;9.02;4.20;;;;;;;;;;5095193;28;20024;-69
2023/10/11 04:41:49;;;;;;;9.95;4.35;;;;;;;;;;5095046;28;20362;-70
2023/10/11 04:44:17;;;;;;;6.95;4.47;;;;;;;;;;5094897;28;20024;-69
2023/10/11 04:46:44;;;;;;;11.40;4.43;;;;;;;;;;5095134;28;20546;-69
2023/10/11 04:49:23;;;;;;;9.05;4.57;;;;;;;;;;5094864;28;20028;-70
2023/10/11 04:51:49;;;;;;;13.60;5.00;;;;;;;;;;5094555;28;20512;-69
2023/10/11 04:54:18;;;;;;;10.93;5.35;;;;;;;;;;5093833;28;20054;-70
2023/10/11 04:59:20;;;;;;;13.13;4.80;;;;;;;;;;5094887;28;20021;-70
2023/10/11 05:04:16;;;;;;;10.25;4.72;;;;;;;;;;5094745;28;20034;-69
2023/10/11 05:06:43;;;;;;;10.13;4.60;;;;;;;;;;5094440;28;20023;-70
2023/10/11 05:11:50;;;;;;;9.95;4.93;;;;;;;;;;5094461;28;20057;-69
2023/10/11 05:17:32;;;;;;;12.23;4.93;;;;;;;;;;5094623;28;20031;-70
2023/10/11 05:27:57;;;;;;;10.18;4.90;;;;;;;;;;5094341;28;20023;-69
2023/10/11 05:52:07;;;;;;;11.70;5.07;;;;;;;;;;5111894;28;20092;-69
2023/10/11 05:54:37;;;;;;;11.48;4.72;;;;;;;;;;5113959;28;20047;-70
2023/10/11 05:57:03;;;;;;;11.75;4.95;;;;;;;;;;5114079;28;20023;-69
2023/10/11 05:59:37;;;;;;;13.05;5.32;;;;;;;;;;5113877;28;20016;-69
2023/10/11 06:02:07;;;;;;;13.38;4.50;;;;;;;;;;5114138;28;20488;-69
2023/10/11 06:04:39;;;;;;;16.17;5.17;;;;;;;;;;5113427;28;20031;-70
2023/10/11 06:07:13;;;;;;;10.95;4.93;;;;;;;;;;5113563;28;20490;-70
2023/10/11 06:09:52;;;;;;;10.27;4.88;;;;;;;;;;5113978;28;20024;-70
2023/10/11 06:12:22;;;;;;;12.02;4.90;;;;;;;;;;5113779;28;20488;-70
2023/10/11 06:15:03;;;;;;;12.43;4.78;;;;;;;;;;5112454;28;20403;-70
2023/10/11 06:17:49;;;;;;;11.13;4.80;;;;;;;;;;5090777;28;20020;-68
2023/10/11 06:20:28;;;;;;;16.73;5.15;;;;;;;;;;5091836;28;20031;-69
2023/10/11 06:22:55;;;;;;;11.27;4.72;;;;;;;;;;5092738;28;20050;-69
2023/10/11 06:25:49;;;;;;;8.88;4.30;;;;;;;;;;5092646;28;20039;-68
2023/10/11 06:28:13;;;;;;;14.70;4.95;;;;;;;;;;5090243;28;20028;-70
2023/10/11 06:30:42;;;;;;;12.07;4.70;;;;;;;;;;5080503;28;20023;-70
2023/10/11 06:33:12;;;;;;;12.38;5.22;;;;;;;;;;5093334;28;20032;-69
2023/10/11 06:35:44;;;;;;;9.67;5.37;;;;;;;;;;5091767;28;20031;-69
2023/10/11 06:38:13;;;;;;;19.23;5.07;;;;;;;;;;5091792;28;20020;-70
2023/10/11 06:40:46;;;;;;;11.38;5.00;;;;;;;;;;5092185;28;20498;-69
2023/10/11 06:43:12;;;;;;;10.30;5.32;;;;;;;;;;5091948;28;20029;-70
2023/10/11 06:45:42;;;;;;;11.80;4.65;;;;;;;;;;5091880;28;20040;-70
2023/10/11 06:48:09;;;;;;;13.25;5.15;;;;;;;;;;5091524;28;20038;-70
2023/10/11 06:50:36;;;;;;;12.82;4.78;;;;;;;;;;5092480;28;20030;-69
2023/10/11 06:53:09;;;;;;;16.27;5.40;;;;;;;;;;5075369;28;20036;-69
2023/10/11 06:55:39;;;;;;;10.32;5.00;;;;;;;;;;5091486;28;20503;-70
2023/10/11 06:58:15;;;;;;;11.93;5.07;;;;;;;;;;5091009;28;20020;-69
2023/10/11 07:00:45;;;;;;;171.82;14.48;;;;;;;;;;5091680;28;20023;-70
2023/10/11 07:06:10;;;;;;;46.83;6.55;;;;;;;;;;5091555;28;20057;-70
2023/10/11 07:08:44;;;;;;;43.50;6.03;;;;;;;;;;5092254;28;20024;-69
2023/10/11 07:11:40;;;;;;;17.27;4.95;;;;;;;;;;5078572;28;20019;-70
2023/10/11 07:14:14;;;;;;;13.77;5.18;;;;;;;;;;5053581;28;20035;-70
2023/10/11 07:16:42;;;;;;;13.10;5.15;;;;;;;;;;5093021;28;20030;-70
2023/10/11 07:19:11;;;;;;;10.85;5.18;;;;;;;;;;5098268;28;20030;-69
2023/10/11 07:24:19;;;;;;;15.52;5.20;;;;;;;;;;5098201;28;20032;-70
2023/10/11 07:29:13;;;;;;;13.32;5.20;;;;;;;;;;5098451;28;20023;-70
2023/10/11 07:31:48;;;;;;;98.90;10.82;;;;;;;;;;5098317;28;20032;-70
2023/10/11 07:34:18;;;;;;;22.67;5.40;;;;;;;;;;5097597;28;20501;-69
2023/10/11 07:36:48;;;;;;;15.60;5.20;;;;;;;;;;5098365;28;20027;-70
2023/10/11 07:41:52;;;;;;;21.08;5.68;;;;;;;;;;5098281;28;20022;-69
2023/10/11 07:44:19;;;;;;;23.80;5.55;;;;;;;;;;5098208;28;20042;-69
2023/10/11 07:46:46;;;;;;;17.38;5.07;;;;;;;;;;5080004;28;20400;-70
2023/10/11 07:49:22;;;;;;;20.75;5.20;;;;;;;;;;5098397;28;20024;-70
2023/10/11 07:51:53;;;;;;;15.23;5.22;;;;;;;;;;5096708;28;20515;-69
2023/10/11 07:54:22;;;;;;;18.67;5.63;;;;;;;;;;5097793;28;20044;-69
2023/10/11 07:56:52;;;;;;;19.83;5.60;;;;;;;;;;5097964;28;20020;-70
2023/10/11 07:59:23;;;;;;;12.67;5.20;;;;;;;;;;5098005;28;20032;-70
2023/10/11 08:01:53;;;;;;;16.10;5.50;;;;;;;;;;5097028;28;20278;-70
2023/10/11 08:04:29;;;;;;;19.67;5.82;;;;;;;;;;5097644;28;20096;-70
2023/10/11 08:07:00;;;;;;;15.23;5.13;;;;;;;;;;5097999;28;20040;-71
2023/10/11 08:09:45;;;;;;;12.13;4.93;;;;;;;;;;5097789;28;20028;-70
2023/10/11 08:12:13;;;;;;;14.15;5.07;;;;;;;;;;5097941;28;20416;-71
2023/10/11 08:14:44;;;;;;;12.02;5.43;;;;;;;;;;5079885;28;20024;-71
2023/10/11 08:17:20;;;;;;;7.43;4.75;;;;;;;;;;5098188;28;20026;-71
2023/10/11 08:19:48;;;;;;;8.75;4.72;;;;;;;;;;5079241;28;20384;-71
2023/10/11 08:22:15;;;;;;;13.00;5.35;;;;;;;;;;5097151;28;20507;-70
2023/10/11 08:24:46;;;;;;;10.68;4.75;;;;;;;;;;5097546;28;20035;-71
2023/10/11 08:27:13;;;;;;;15.18;4.90;;;;;;;;;;5097764;28;20388;-71
2023/10/11 08:29:42;;;;;;;14.57;5.15;;;;;;;;;;5075820;28;20036;-71
2023/10/11 08:32:13;;;;;;;8.77;4.90;;;;;;;;;;5016857;28;20060;-71
2023/10/11 08:34:51;;;;;;;8.57;4.57;;;;;;;;;;5034561;28;20025;-71
2023/10/11 08:37:17;;;;;;;7.45;4.45;;;;;;;;;;5034208;28;20065;-71
2023/10/11 08:39:46;;;;;;;11.82;4.85;;;;;;;;;;5031114;28;20038;-71
2023/10/11 08:42:16;;;;;;;11.52;4.85;;;;;;;;;;5014593;28;20028;-71
2023/10/11 08:44:46;;;;;;;15.00;4.93;;;;;;;;;;5014133;28;20026;-72
2023/10/11 08:47:19;;;;;;;9.85;4.60;;;;;;;;;;5029972;28;20029;-71
2023/10/11 08:49:50;;;;;;;9.80;4.72;;;;;;;;;;5014633;28;20549;-71
2023/10/11 08:52:23;;;;;;;7.00;4.35;;;;;;;;;;5034362;28;20025;-70
2023/10/11 08:54:49;;;;;;;10.07;4.72;;;;;;;;;;5032027;28;20049;-67
2023/10/11 08:57:19;;;;;;;7.85;4.43;;;;;;;;;;5033654;28;20041;-70
2023/10/11 08:59:58;;;;;;;6.07;4.47;;;;;;;;;;5033741;28;20021;-71
2023/10/11 09:02:26;;;;;;;7.60;4.60;;;;;;;;;;5033824;28;20040;-70
2023/10/11 09:05:28;;;;;;;13.30;5.00;;;;;;;;;;5032628;28;20040;-68
2023/10/11 09:07:55;;;;;;;14.57;5.30;;;;;;;;;;5034021;28;20104;-70
2023/10/11 09:10:28;;;;;;;10.98;4.80;;;;;;;;;;5033733;28;20033;-71
2023/10/11 09:12:58;;;;;;;10.80;5.07;;;;;;;;;;5032969;28;20021;-71
2023/10/11 09:15:33;;;;;;;6.70;4.32;;;;;;;;;;5033377;28;20014;-70
2023/10/11 09:18:16;;;;;;;9.82;5.25;;;;;;;;;;5032491;28;20037;-70
2023/10/11 09:20:50;;;;;;;9.38;4.70;;;;;;;;;;5033606;28;20036;-71
2023/10/11 09:23:20;;;;;;;9.93;4.90;;;;;;;;;;5048876;28;20386;-69
2023/10/11 09:26:00;;;;;;;11.38;4.85;;;;;;;;;;5032935;28;20495;-71
2023/10/11 09:28:27;;;;;;;7.88;4.45;;;;;;;;;;5024954;28;20040;-69
2023/10/11 09:31:11;;;;;;;14.10;4.85;;;;;;;;;;5032636;28;20025;-69
2023/10/11 09:33:41;;;;;;;8.13;5.00;;;;;;;;;;5032477;28;20025;-69
2023/10/11 09:36:08;;;;;;;8.50;4.53;;;;;;;;;;5033127;28;20397;-71
2023/10/11 09:38:39;;;;;;;8.63;5.00;;;;;;;;;;5033278;28;20029;-70
2023/10/11 09:41:08;;;;;;;8.30;5.05;;;;;;;;;;5032656;28;20037;-70
2023/10/11 09:43:44;;;;;;;12.77;5.07;;;;;;;;;;5033110;28;20025;-71
2023/10/11 09:46:11;;;;;;;11.18;4.63;;;;;;;;;;5032999;28;20026;-70
2023/10/11 09:48:39;;;;;;;14.43;5.00;;;;;;;;;;5031924;28;20018;-71
2023/10/11 09:51:08;;;;;;;10.82;4.75;;;;;;;;;;5032659;28;20036;-70
2023/10/11 09:53:41;;;;;;;11.27;4.68;;;;;;;;;;5032598;28;20433;-70
2023/10/11 09:56:20;;;;;;;14.93;4.43;;;;;;;;;;5031535;28;20033;-71
2023/10/11 09:58:54;;;;;;;10.30;5.18;;;;;;;;;;5032493;28;20071;-71
2023/10/11 10:01:41;;;;;;;11.50;4.93;;;;;;;;;;5033164;28;20032;-69
2023/10/11 10:04:09;;;;;;;12.80;4.78;;;;;;;;;;5032059;28;20032;-71
2023/10/11 10:06:35;;;;;;;16.15;5.05;;;;;;;;;;5031552;28;20043;-71
2023/10/11 10:09:18;;;;;;;9.68;5.07;;;;;;;;;;5032833;28;20036;-71
2023/10/11 10:12:05;;;;;;;8.40;4.20;;;;;;;;;;5032133;28;20035;-71
2023/10/11 10:14:36;;;;;;;15.25;5.05;;;;;;;;;;5032645;28;20033;-71
2023/10/11 10:17:02;;;;;;;;;;;;;;;;;;5032868;28;20025;-71
2023/10/11 10:19:34;;;;;;;12.88;4.70;;;;;;;;;;5032471;28;19916;-71
2023/10/11 10:22:15;;;;;;;13.02;4.85;;;;;;;;;;5032865;28;20029;-70
2023/10/11 10:24:43;;;;;;;12.10;4.22;;;;;;;;;;5031886;28;20032;-71
2023/10/11 10:27:34;;;;;;;8.90;4.50;;;;;;;;;;5032408;28;20427;-70
2023/10/11 10:30:00;;;;;;;;;;;;;;;;;;5033033;28;20025;-71
2023/10/11 10:32:27;;;;;;;13.32;4.40;;;;;;;;;;5032209;28;19913;-71
2023/10/11 10:35:12;;;;;;;11.07;4.72;;;;;;;;;;5047587;28;20021;-71
2023/10/11 10:38:09;;;;;;;10.52;4.30;;;;;;;;;;5032334;28;20029;-71
2023/10/11 10:40:37;;;;;;;15.13;4.43;;;;;;;;;;5031678;28;20041;-71
2023/10/11 10:43:07;;;;;;;9.25;4.40;;;;;;;;;;5032185;28;20029;-71
2023/10/11 10:45:36;;;;;;;12.43;4.43;;;;;;;;;;5032077;28;20037;-71
2023/10/11 10:48:39;;;;;;;11.77;4.35;;;;;;;;;;5032071;28;20040;-71
2023/10/11 10:51:05;;;;;;;9.90;4.20;;;;;;;;;;5025370;28;20047;-70
2023/10/11 10:53:38;;;;;;;11.93;3.80;;;;;;;;;;5031230;28;20029;-71
2023/10/11 10:56:04;;;;;;;12.77;4.30;;;;;;;;;;5024027;28;20035;-71
2023/10/11 10:58:30;;;;;;;9.88;4.75;;;;;;;;;;5032357;28;20041;-70
2023/10/11 11:00:59;;;;;;;9.85;4.00;;;;;;;;;;5031676;28;20022;-71
2023/10/11 11:03:31;;;;;;;8.30;3.85;;;;;;;;;;5031523;28;20429;-70
2023/10/11 11:05:59;;;;;;;12.00;3.70;;;;;;;;;;5031939;28;20034;-71
2023/10/11 11:08:31;;;;;;;8.77;4.50;;;;;;;;;;5031595;28;20014;-70
2023/10/11 11:11:19;;;;;;;7.82;4.25;;;;;;;;;;5032074;28;20030;-71
2023/10/11 11:13:48;;;;;;;9.40;4.22;;;;;;;;;;5031910;28;20030;-71
2023/10/11 11:16:29;;;;;;;13.45;4.50;;;;;;;;;;5037145;28;20425;-71
2023/10/11 11:19:01;;;;;;;;;;;;;;;;;;5052432;28;20486;-71
2023/10/11 11:21:30;;;;;;;11.18;4.07;;;;;;;;;;5052236;28;19904;-71
2023/10/11 11:24:14;;;;;;;10.85;4.40;;;;;;;;;;5051399;28;20544;-71
2023/10/11 11:26:41;;;;;;;18.27;4.95;;;;;;;;;;5051955;28;20033;-71
2023/10/11 11:29:09;;;;;;;6.38;4.03;;;;;;;;;;5046230;28;20035;-72
2023/10/11 11:31:59;;;;;;;12.48;4.20;;;;;;;;;;5051310;28;20051;-72
2023/10/11 11:34:34;;;;;;;8.73;4.30;;;;;;;;;;5051471;28;20029;-71
2023/10/11 11:37:01;;;;;;;12.05;4.97;;;;;;;;;;5051653;28;20035;-72
2023/10/11 11:39:28;;;;;;;10.75;4.10;;;;;;;;;;5051650;28;20029;-71
2023/10/11 11:41:57;;;;;;;20.88;4.43;;;;;;;;;;5051476;28;20025;-71
2023/10/11 11:44:24;;;;;;;13.67;4.57;;;;;;;;;;5051273;28;20037;-72
2023/10/11 11:46:51;;;;;;;10.38;4.28;;;;;;;;;;5051402;28;20024;-72
2023/10/11 11:49:20;;;;;;;12.43;4.22;;;;;;;;;;5051522;28;20027;-72
2023/10/11 11:51:50;;;;;;;11.55;4.63;;;;;;;;;;5050934;28;20028;-71
2023/10/11 11:54:21;;;;;;;13.40;4.53;;;;;;;;;;5051110;28;20041;-71
2023/10/11 11:56:47;;;;;;;6.32;3.80;;;;;;;;;;5051344;28;20025;-71
2023/10/11 11:59:20;;;;;;;11.30;4.18;;;;;;;;;;5051233;28;20025;-71
2023/10/11 12:01:52;;;;;;;13.60;4.82;;;;;;;;;;5051169;28;20031;-72
2023/10/11 12:04:29;;;;;;;15.50;4.50;;;;;;;;;;5052732;28;20020;-72
2023/10/11 12:06:58;;;;;;;9.80;4.75;;;;;;;;;;5054783;28;20050;-72
2023/10/11 12:09:31;;;;;;;21.55;4.57;;;;;;;;;;5054418;28;20021;-72
2023/10/11 12:12:02;;;;;;;14.10;4.10;;;;;;;;;;5053958;28;20037;-72
2023/10/11 12:14:29;;;;;;;11.07;4.07;;;;;;;;;;5054737;28;20413;-72
2023/10/11 12:16:55;;;;;;;11.85;3.95;;;;;;;;;;5037043;28;20071;-72
2023/10/11 12:19:22;;;;;;;10.07;4.13;;;;;;;;;;5034720;28;20024;-72
2023/10/11 12:21:51;;;;;;;11.57;3.72;;;;;;;;;;5034047;28;20417;-72
2023/10/11 12:24:17;;;;;;;12.48;4.30;;;;;;;;;;5035115;28;20020;-72
2023/10/11 12:26:44;;;;;;;8.48;3.55;;;;;;;;;;5034720;28;20021;-71
2023/10/11 12:29:14;;;;;;;16.92;4.05;;;;;;;;;;5033702;28;20390;-72
2023/10/11 12:31:41;;;;;;;7.72;3.80;;;;;;;;;;5033893;28;20021;-73
2023/10/11 12:34:11;;;;;;;7.50;3.88;;;;;;;;;;5034348;28;20063;-72
2023/10/11 12:36:42;;;;;;;9.73;3.85;;;;;;;;;;5034496;28;20028;-72
2023/10/11 12:39:20;;;;;;;9.98;3.95;;;;;;;;;;5034459;28;20025;-73
2023/10/11 12:41:50;;;;;;;8.43;3.47;;;;;;;;;;5034292;28;20033;-72
2023/10/11 12:44:17;;;;;;;6.07;3.42;;;;;;;;;;5034649;28;20040;-71
2023/10/11 12:46:43;;;;;;;11.93;3.78;;;;;;;;;;5034395;28;20022;-71
2023/10/11 12:49:15;;;;;;;12.75;3.60;;;;;;;;;;5013342;28;20498;-70
2023/10/11 12:51:43;;;;;;;11.00;4.07;;;;;;;;;;5031512;28;20026;-70
2023/10/11 12:54:10;;;;;;;9.30;3.53;;;;;;;;;;5033957;28;20053;-69
2023/10/11 12:56:37;;;;;;;9.00;3.65;;;;;;;;;;5034042;28;20025;-70
2023/10/11 12:59:10;;;;;;;4.75;3.22;;;;;;;;;;5026001;28;20490;-70
2023/10/11 13:01:38;;;;;;;6.38;3.25;;;;;;;;;;5034068;28;20030;-70
2023/10/11 13:04:17;;;;;;;9.27;3.60;;;;;;;;;;5026071;28;20022;-70
2023/10/11 13:06:49;;;;;;;;;;;;;;;;;;5034287;28;20056;-70
2023/10/11 13:09:16;;;;;;;8.50;3.65;;;;;;;;;;5034294;28;19909;-70
2023/10/11 13:11:46;;;;;;;11.43;3.83;;;;;;;;;;5033951;28;20421;-70
2023/10/11 16:57:55;;;;;;;14.10;7.60;;;;;;;;;;5069591;28;20383;-76
2023/10/11 17:00:22;;;;;;;12.43;7.30;;;;;;;;;;5069546;28;20028;-73
2023/10/11 17:02:49;;;;;;;10.85;7.10;;;;;;;;;;5069500;28;20028;-75
2023/10/11 17:05:15;;;;;;;13.35;6.95;;;;;;;;;;5069539;28;20031;-74
2023/10/11 17:07:42;;;;;;;13.65;7.07;;;;;;;;;;5069581;28;20017;-74
2023/10/11 17:10:10;;;;;;;10.30;7.20;;;;;;;;;;5068926;28;20051;-74
2023/10/11 17:12:40;;;;;;;13.70;7.65;;;;;;;;;;5069066;28;20017;-74
2023/10/11 17:15:09;;;;;;;11.23;7.50;;;;;;;;;;5069229;28;20054;-75
2023/10/11 17:17:39;;;;;;;12.23;6.88;;;;;;;;;;5069211;28;20040;-75
2023/10/11 17:20:14;;;;;;;10.77;7.38;;;;;;;;;;5069877;28;20017;-75
2023/10/11 17:22:45;;;;;;;10.00;7.35;;;;;;;;;;5069420;28;20021;-75
2023/10/11 17:25:12;;;;;;;14.88;8.23;;;;;;;;;;5068151;28;20050;-75
2023/10/11 17:27:39;;;;;;;16.67;7.97;;;;;;;;;;5069403;28;20017;-75
2023/10/11 17:30:10;;;;;;;27.90;8.70;;;;;;;;;;5069696;28;20029;-75
2023/10/11 17:32:36;;;;;;;14.98;7.65;;;;;;;;;;5069304;28;20029;-75
2023/10/11 17:35:05;;;;;;;16.20;8.10;;;;;;;;;;5069476;28;20021;-75
2023/10/11 17:37:33;;;;;;;13.55;7.68;;;;;;;;;;5069046;28;20043;-75
2023/10/11 17:40:00;;;;;;;10.68;8.38;;;;;;;;;;5068891;28;20027;-75
2023/10/11 17:42:26;;;;;;;13.75;8.18;;;;;;;;;;5069074;28;20519;-75
2023/10/11 17:44:53;;;;;;;12.10;7.97;;;;;;;;;;5069388;28;20043;-75
2023/10/11 17:47:20;;;;;;;11.88;7.93;;;;;;;;;;5068989;28;20452;-75
2023/10/11 17:49:47;;;;;;;14.45;7.95;;;;;;;;;;5069001;28;20392;-75
2023/10/11 17:52:13;;;;;;;12.30;7.45;;;;;;;;;;5068841;28;20029;-75
2023/10/11 17:54:41;;;;;;;13.15;8.02;;;;;;;;;;5068496;28;20554;-75
2023/10/11 17:57:08;;;;;;;11.95;8.23;;;;;;;;;;5068393;28;20041;-75
2023/10/11 17:59:34;;;;;;;14.13;7.90;;;;;;;;;;5068665;28;20029;-75
2023/10/11 18:02:00;;;;;;;13.57;8.40;;;;;;;;;;5068620;28;20021;-75
2023/10/11 18:04:26;;;;;;;13.23;8.45;;;;;;;;;;5068737;28;20073;-75
2023/10/11 18:06:53;;;;;;;12.65;7.80;;;;;;;;;;5068600;28;20028;-75
2023/10/11 18:09:19;;;;;;;15.73;9.13;;;;;;;;;;5054987;28;20017;-75
2023/10/11 18:11:46;;;;;;;13.25;9.07;;;;;;;;;;5055340;28;20031;-75
2023/10/11 18:14:13;;;;;;;13.32;8.65;;;;;;;;;;5055414;28;20025;-75
2023/10/11 18:16:39;;;;;;;13.20;8.50;;;;;;;;;;5055201;28;20037;-75
2023/10/11 18:19:06;;;;;;;12.55;8.10;;;;;;;;;;5055243;28;20409;-75
2023/10/11 18:21:33;;;;;;;15.75;9.40;;;;;;;;;;5055060;28;20433;-75
2023/10/11 18:24:00;;;;;;;19.15;9.63;;;;;;;;;;5054658;28;20462;-75
2023/10/11 18:26:26;;;;;;;13.77;9.43;;;;;;;;;;5055065;28;20025;-75
2023/10/11 18:28:52;;;;;;;11.40;8.38;;;;;;;;;;5054878;28;20482;-75
2023/10/11 18:31:20;;;;;;;11.25;8.45;;;;;;;;;;5055294;28;20025;-75
2023/10/11 18:33:46;;;;;;;13.27;8.63;;;;;;;;;;5054808;28;20021;-75
2023/10/11 18:36:13;;;;;;;13.20;8.30;;;;;;;;;;5054859;28;20025;-74
2023/10/11 18:38:39;;;;;;;13.77;8.15;;;;;;;;;;5054487;28;20039;-75
2023/10/11 18:41:07;;;;;;;14.90;8.48;;;;;;;;;;5054813;28;20420;-75
2023/10/11 18:43:34;;;;;;;13.48;8.10;;;;;;;;;;5054710;28;20508;-75
2023/10/11 18:46:08;;;;;;;12.00;8.38;;;;;;;;;;5054682;28;20482;-75
2023/10/11 18:48:35;;;;;;;12.23;8.25;;;;;;;;;;5054582;28;20098;-75
2023/10/11 18:51:05;;;;;;;15.82;8.68;;;;;;;;;;5054693;28;20474;-75
2023/10/11 18:53:32;;;;;;;10.95;8.00;;;;;;;;;;5054108;28;20021;-75
2023/10/11 18:56:01;;;;;;;12.55;7.93;;;;;;;;;;5054530;28;20055;-75
2023/10/11 18:58:28;;;;;;;14.40;8.32;;;;;;;;;;5053605;28;20090;-75
2023/10/11 19:00:55;;;;;;;16.02;8.13;;;;;;;;;;5054270;28;20024;-75
2023/10/11 19:03:22;;;;;;;13.45;8.57;;;;;;;;;;5054539;28;20025;-75
2023/10/11 19:05:48;;;;;;;12.70;9.00;;;;;;;;;;5054297;28;20021;-75
2023/10/11 19:08:14;;;;;;;15.45;8.60;;;;;;;;;;5053873;28;20493;-75
2023/10/11 19:10:41;;;;;;;14.75;8.93;;;;;;;;;;5054374;28;20041;-75
2023/10/11 19:13:08;;;;;;;13.93;8.82;;;;;;;;;;5054290;28;20028;-75
2023/10/11 19:15:35;;;;;;;14.95;9.00;;;;;;;;;;5054041;28;20486;-75
2023/10/11 19:18:05;;;;;;;15.43;8.30;;;;;;;;;;5054076;28;20029;-75
2023/10/11 19:20:32;;;;;;;12.97;8.70;;;;;;;;;;5052728;28;20066;-75
2023/10/11 19:23:00;;;;;;;14.90;9.10;;;;;;;;;;5053939;28;20267;-75
2023/10/11 19:25:27;;;;;;;11.77;8.73;;;;;;;;;;5053829;28;20033;-75
2023/10/11 19:28:00;;;;;;;11.77;8.80;;;;;;;;;;5053613;28;20432;-75
2023/10/11 19:30:27;;;;;;;13.65;9.30;;;;;;;;;;5053982;28;20088;-75
2023/10/11 19:32:53;;;;;;;15.65;9.02;;;;;;;;;;5053880;28;20047;-75